KPAH

Barkley Regional Airport

Paducah, Kentucky, USA
METAR KPAH 180153Z 26003KT 10SM BKN110 25/22 A2997 RMK AO2 SLP142 T02500217 $
Observed Flight Rules
Aug-18 @ 01:53 UTC (37 minutes ago) Visual Flight Rules
Wind Visibility Clouds
260° at 3 knots 10 miles
  • Broken at 11,000' AGL
Temperatures Readings
Current 25°C / 77°F
Dewpoint 22°C / 72°F
Humidity 83%
Altimeter 29.97" Hg
Pressure 1014.2 hPa
Elevation 119
METAR KPAH 180153Z 26003KT 10SM BKN110 25/22 A2997 RMK AO2 SLP142 T02500217 $
Observed Flight Rules
Aug-18 @ 01:53 UTC
(37 minutes ago)
VFR
Wind Visibility
260° at 3 knots 10 miles
Clouds
  • Broken at 11,000' AGL
Temperature Dewpoint
25°C / 77°F 22°C / 72°F
Humidity Altimeter Pressure
83% 29.97" Hg 1014.2 hPa